Time;durP1;ratioP1;P1;durP2;ratioP2;P2;SDS_P1;SDS_P2;PMS_P1;PMS_P2;Temp;Humidity;BMP_temperature;BMP_pressure;BME280_temperature;BME280_humidity;BME280_pressure;Samples;Min_cycle;Max_cycle;Signal;HPM_P1;HPM_P2
2023/01/19 00:00:57;;;;;;;16.00;7.15;;;;;;;-148.88;100.00;76077.84;5051452;28;20403;-88
2023/01/19 00:03:23;;;;;;;14.07;6.68;;;;;;;-148.88;100.00;76065.66;5052722;28;20070;-87
2023/01/19 00:05:48;;;;;;;15.13;6.57;;;;;;;-148.88;100.00;76069.72;5053255;28;20033;-87
2023/01/19 00:08:14;;;;;;;19.45;6.22;;;;;;;-148.88;100.00;76071.75;5052686;28;20400;-88
2023/01/19 00:10:41;;;;;;;13.82;7.28;;;;;;;-148.88;100.00;76069.72;5052762;28;20155;-87
2023/01/19 00:13:06;;;;;;;14.60;6.38;;;;;;;-148.88;100.00;76065.66;5051332;28;20017;-88
2023/01/19 00:15:31;;;;;;;14.63;6.65;;;;;;;-148.88;100.00;76073.78;5052641;28;20017;-87
2023/01/19 00:17:57;;;;;;;14.38;7.15;;;;;;;-148.88;100.00;76073.78;5054896;28;20037;-88
2023/01/19 00:20:22;;;;;;;14.73;6.50;;;;;;;-148.88;100.00;76069.72;5056426;28;20028;-87
2023/01/19 00:22:49;;;;;;;13.85;6.55;;;;;;;-148.88;100.00;76055.50;5055163;28;20098;-86
2023/01/19 00:25:15;;;;;;;15.48;6.97;;;;;;;-148.88;100.00;76065.66;5057411;28;20025;-89
2023/01/19 00:27:41;;;;;;;13.85;6.95;;;;;;;-148.88;100.00;76069.72;5056386;28;20029;-88
2023/01/19 00:30:07;;;;;;;19.52;7.40;;;;;;;-148.88;100.00;76077.84;5056048;28;20546;-88
2023/01/19 00:32:32;;;;;;;16.75;7.68;;;;;;;-148.88;100.00;76069.72;5055943;28;20025;-87
2023/01/19 00:34:57;;;;;;;15.57;7.13;;;;;;;-148.88;100.00;76071.75;5055118;28;20013;-88
2023/01/19 00:37:22;;;;;;;15.38;7.30;;;;;;;-148.88;100.00;76065.66;5054695;28;20045;-87
2023/01/19 00:39:48;;;;;;;17.95;7.28;;;;;;;-148.88;100.00;76063.63;5054830;28;20033;-87
2023/01/19 00:44:57;;;;;;;15.02;7.50;;;;;;;-148.88;100.00;76077.84;5055900;28;20458;-88
2023/01/19 00:47:25;;;;;;;14.25;7.18;;;;;;;-148.88;100.00;76081.91;5054629;28;20028;-87
2023/01/19 00:49:50;;;;;;;21.50;7.30;;;;;;;-148.88;100.00;76090.03;5054629;28;20066;-88
2023/01/19 00:52:16;;;;;;;15.60;7.15;;;;;;;-148.88;100.00;76102.22;5055919;28;20020;-88
2023/01/19 00:54:41;;;;;;;17.80;7.97;;;;;;;-148.88;100.00;76106.28;5055573;28;20475;-88
2023/01/19 00:57:06;;;;;;;18.83;7.63;;;;;;;-148.88;100.00;76108.31;5054525;28;20025;-88
2023/01/19 00:59:32;;;;;;;14.07;7.20;;;;;;;-148.88;100.00;76106.28;5054365;28;20044;-88
2023/01/19 01:01:57;;;;;;;14.23;6.13;;;;;;;-148.88;100.00;76098.16;5055433;28;20174;-87
2023/01/19 01:04:22;;;;;;;19.38;7.97;;;;;;;-148.88;100.00;76104.25;5055742;28;20021;-88
2023/01/19 01:06:47;;;;;;;17.42;7.80;;;;;;;-148.88;100.00;76098.16;5055271;28;20025;-87
2023/01/19 01:09:13;;;;;;;16.38;7.90;;;;;;;-148.88;100.00;76090.03;5054248;28;20029;-88
2023/01/19 01:11:40;;;;;;;15.02;6.95;;;;;;;-148.88;100.00;76090.03;5055689;28;20565;-87
2023/01/19 01:14:06;;;;;;;16.25;7.53;;;;;;;-148.88;100.00;76090.03;5055972;28;20024;-87
2023/01/19 01:16:32;;;;;;;14.75;7.47;;;;;;;-148.88;100.00;76102.22;5057807;28;20033;-87
2023/01/19 01:18:57;;;;;;;13.70;7.57;;;;;;;-148.88;100.00;76112.41;5055731;28;20041;-88
2023/01/19 01:21:22;;;;;;;19.15;7.70;;;;;;;-148.88;100.00;76106.28;5053912;28;20028;-88
2023/01/19 01:23:48;;;;;;;17.13;8.15;;;;;;;-148.88;100.00;76106.28;5055145;28;20025;-87
2023/01/19 01:26:13;;;;;;;17.05;8.00;;;;;;;-148.88;100.00;76100.19;5054821;28;20021;-89
2023/01/19 01:28:38;;;;;;;20.92;8.32;;;;;;;-148.88;100.00;76094.09;5054151;28;20029;-88
2023/01/19 01:31:03;;;;;;;16.35;8.05;;;;;;;-148.88;100.00;76090.03;5055240;28;20391;-88
2023/01/19 01:33:29;;;;;;;17.70;7.82;;;;;;;-148.88;100.00;76100.19;5054979;28;20024;-88
2023/01/19 01:35:54;;;;;;;17.83;8.15;;;;;;;-148.88;100.00;76106.28;5054867;28;20017;-89
2023/01/19 01:38:19;;;;;;;15.50;7.75;;;;;;;-148.88;100.00;76090.03;5054735;28;20025;-88
2023/01/19 01:40:44;;;;;;;16.73;7.72;;;;;;;-148.88;100.00;76098.16;5054900;28;20476;-86
2023/01/19 01:43:15;;;;;;;17.80;8.35;;;;;;;-148.88;100.00;76083.94;5053660;28;20035;-87
2023/01/19 01:45:41;;;;;;;23.33;8.95;;;;;;;-148.88;100.00;76077.84;5054472;28;20029;-88
2023/01/19 01:48:12;;;;;;;17.15;8.23;;;;;;;-148.88;100.00;76079.88;5054593;28;20372;-87
2023/01/19 01:51:22;;;;;;;17.20;7.90;;;;;;;-148.88;100.00;76071.75;5054638;28;20094;-87
2023/01/19 01:53:32;;;;;;;18.70;7.95;;;;;;;-148.88;100.00;76077.84;5054383;28;20510;-88
2023/01/19 01:55:58;;;;;;;17.52;7.93;;;;;;;-148.88;100.00;76075.81;5054338;28;20025;-88
2023/01/19 01:58:24;;;;;;;19.38;9.25;;;;;;;-148.88;100.00;76075.81;5053513;28;20074;-88
2023/01/19 02:03:33;;;;;;;17.20;8.65;;;;;;;-148.88;100.00;76069.72;5054972;28;20036;-89
2023/01/19 02:14:50;;;;;;;;;;;;;;;-148.88;100.00;76061.59;5055102;28;20031;-88
2023/01/19 02:17:15;;;;;;;17.83;8.37;;;;;;;-148.88;100.00;76049.41;5052864;28;19908;-88
2023/01/19 02:19:42;;;;;;;16.48;7.95;;;;;;;-148.88;100.00;76043.31;5052841;28;20304;-88
2023/01/19 02:22:34;;;;;;;20.88;8.73;;;;;;;-148.88;100.00;76037.22;5054180;28;20039;-88
2023/01/19 02:25:02;;;;;;;17.75;8.40;;;;;;;-148.88;100.00;76045.34;5052798;28;20025;-87
2023/01/19 02:27:27;;;;;;;19.77;9.25;;;;;;;-148.88;100.00;76045.34;5053914;28;20021;-87
2023/01/19 02:29:53;;;;;;;16.52;8.82;;;;;;;-148.88;100.00;76047.38;5052519;28;20028;-88
2023/01/19 02:32:19;;;;;;;24.25;10.00;;;;;;;-148.88;100.00;76045.34;5053820;28;20017;-87
2023/01/19 02:34:44;;;;;;;20.67;8.82;;;;;;;-148.88;100.00;76047.38;5053918;28;20056;-88
2023/01/19 02:37:12;;;;;;;19.45;8.98;;;;;;;-148.88;100.00;76039.25;5053534;28;20096;-87
2023/01/19 02:39:43;;;;;;;21.58;10.32;;;;;;;-148.88;100.00;76047.38;5053176;28;20021;-87
2023/01/19 02:42:14;;;;;;;19.77;8.43;;;;;;;-148.88;100.00;76045.34;5052551;28;20044;-88
2023/01/19 02:44:44;;;;;;;17.88;8.93;;;;;;;-148.88;100.00;76037.22;5054199;28;20029;-89
2023/01/19 02:47:11;;;;;;;20.60;9.40;;;;;;;-148.88;100.00;76037.22;5052506;28;20108;-89
2023/01/19 02:49:36;;;;;;;18.40;9.35;;;;;;;-148.88;100.00;76035.19;5053623;28;20060;-89
2023/01/19 02:52:03;;;;;;;19.73;9.02;;;;;;;-148.88;100.00;76031.13;5053369;28;20063;-88
2023/01/19 02:54:47;;;;;;;19.75;9.35;;;;;;;-148.88;100.00;76037.22;5052193;28;20028;-88
2023/01/19 02:57:34;;;;;;;21.40;9.48;;;;;;;-148.88;100.00;76031.13;5052126;28;20036;-88
2023/01/19 03:00:27;;;;;;;19.10;9.63;;;;;;;-148.88;100.00;76027.06;5053858;28;20024;-89
2023/01/19 03:03:21;;;;;;;21.25;9.18;;;;;;;-148.88;100.00;76031.13;5053729;28;20033;-88
2023/01/19 03:06:07;;;;;;;21.00;9.15;;;;;;;-148.88;100.00;76020.97;5053579;28;20028;-88
2023/01/19 03:08:50;;;;;;;19.38;8.90;;;;;;;-148.88;100.00;76023.00;5052084;28;20480;-87
2023/01/19 03:11:16;;;;;;;22.73;9.33;;;;;;;-148.88;100.00;76020.97;5053538;28;20495;-88
2023/01/19 03:13:47;;;;;;;16.27;8.63;;;;;;;-148.88;100.00;76014.88;5053214;28;20035;-87
2023/01/19 03:16:37;;;;;;;25.80;9.55;;;;;;;-148.88;100.00;76018.94;5053025;28;20494;-87
2023/01/19 03:19:14;;;;;;;20.90;9.38;;;;;;;-148.88;100.00;76020.97;5051847;28;20021;-88
2023/01/19 03:21:44;;;;;;;16.63;9.02;;;;;;;-148.88;100.00;76014.88;5052173;28;20044;-89
2023/01/19 03:24:12;;;;;;;20.92;9.35;;;;;;;-148.88;100.00;76020.97;5051894;28;20024;-88
2023/01/19 03:26:44;;;;;;;20.55;8.88;;;;;;;-148.88;100.00;76012.84;5053608;28;20023;-88
2023/01/19 03:29:13;;;;;;;21.77;9.20;;;;;;;-148.88;100.00;76023.00;5052993;28;20021;-88
2023/01/19 03:31:42;;;;;;;19.15;9.65;;;;;;;-148.88;100.00;76018.94;5052956;28;20031;-88
2023/01/19 03:34:10;;;;;;;20.65;9.18;;;;;;;-148.88;100.00;76012.84;5053374;28;20021;-87
2023/01/19 03:36:42;;;;;;;20.27;9.25;;;;;;;-148.88;100.00;76029.09;5053576;28;20020;-88
2023/01/19 03:39:09;;;;;;;13.05;7.47;;;;;;;-148.88;100.00;76010.81;5053175;28;20021;-88
2023/01/19 03:41:38;;;;;;;15.80;8.15;;;;;;;-148.88;100.00;76010.81;5053068;28;20032;-88
2023/01/19 03:44:06;;;;;;;15.00;7.95;;;;;;;-148.88;100.00;76002.69;5052764;28;20392;-88
2023/01/19 03:46:32;;;;;;;17.45;8.00;;;;;;;-148.88;100.00;76002.69;5051661;28;20035;-88
2023/01/19 03:48:58;;;;;;;17.40;8.77;;;;;;;-148.88;100.00;75996.59;5051501;28;20052;-88
2023/01/19 03:51:24;;;;;;;15.15;7.72;;;;;;;-148.88;100.00;75992.53;5053897;28;20020;-88
2023/01/19 03:53:50;;;;;;;15.98;8.63;;;;;;;-148.88;100.00;75998.63;5055557;28;20028;-88
2023/01/19 03:56:21;;;;;;;18.10;8.93;;;;;;;-148.88;100.00;75998.63;5055416;28;20024;-89
2023/01/19 03:58:46;;;;;;;17.52;8.82;;;;;;;-148.88;100.00;76000.66;5056649;28;20017;-88
2023/01/19 04:01:13;;;;;;;22.50;8.95;;;;;;;-148.88;100.00;75996.59;5055318;28;20199;-87
2023/01/19 04:03:39;;;;;;;18.10;8.98;;;;;;;-148.88;100.00;75998.63;5055747;28;20029;-88
2023/01/19 04:06:04;;;;;;;16.17;8.02;;;;;;;-148.88;100.00;75990.50;5056382;28;20021;-88
2023/01/19 04:08:30;;;;;;;15.98;7.93;;;;;;;-148.88;100.00;75990.50;5056401;28;20017;-88
2023/01/19 04:10:56;;;;;;;15.65;7.53;;;;;;;-148.88;100.00;76004.72;5057084;28;20084;-88
2023/01/19 04:13:22;;;;;;;15.68;8.18;;;;;;;-148.88;100.00;75994.56;5056365;28;20029;-88
2023/01/19 04:15:47;;;;;;;20.25;8.70;;;;;;;-148.88;100.00;76002.69;5056559;28;20027;-88
2023/01/19 04:18:15;;;;;;;18.00;8.32;;;;;;;-148.88;100.00;76006.75;5056329;28;20067;-87
2023/01/19 04:20:41;;;;;;;17.63;9.15;;;;;;;-148.88;100.00;76004.72;5055026;28;20031;-88
2023/01/19 04:23:06;;;;;;;17.60;8.60;;;;;;;-148.88;100.00;75992.53;5056830;28;20024;-87
2023/01/19 04:25:32;;;;;;;20.50;8.45;;;;;;;-148.88;100.00;76000.66;5056037;28;20032;-87
2023/01/19 04:27:57;;;;;;;18.98;8.70;;;;;;;-148.88;100.00;75998.63;5055141;28;20036;-88
2023/01/19 04:30:23;;;;;;;18.02;8.70;;;;;;;-148.88;100.00;75992.53;5056621;28;20048;-88
2023/01/19 04:32:48;;;;;;;19.80;8.55;;;;;;;-148.88;100.00;75976.28;5062337;28;20445;-87
2023/01/19 04:35:13;;;;;;;18.38;9.05;;;;;;;-148.88;100.00;75984.41;5062218;28;20068;-87
2023/01/19 04:42:00;;;;;;;;;;;;;;;;;;;;;
2023/01/19 04:47:43;;;;;;;17.45;8.35;;;;;;;-148.88;100.00;75976.28;5085784;22;20439;-79
2023/01/19 04:50:10;;;;;;;20.13;8.52;;;;;;;-148.88;100.00;75980.34;5078364;28;20213;-79
2023/01/19 04:52:35;;;;;;;15.50;7.70;;;;;;;-148.88;100.00;75984.41;5077023;28;20053;-79
2023/01/19 04:55:03;;;;;;;17.92;8.50;;;;;;;-148.88;100.00;75980.34;5078140;28;20028;-79
2023/01/19 04:57:29;;;;;;;18.48;8.18;;;;;;;-148.88;100.00;75970.19;5074986;28;20024;-79
2023/01/19 04:59:56;;;;;;;18.40;9.02;;;;;;;-148.88;100.00;75980.34;5074983;28;20120;-79
2023/01/19 05:02:22;;;;;;;15.93;8.35;;;;;;;-148.88;100.00;75990.50;5074917;28;20024;-79
2023/01/19 05:04:47;;;;;;;17.63;9.32;;;;;;;-148.88;100.00;75984.41;5076386;28;20059;-79
2023/01/19 05:07:13;;;;;;;21.33;8.70;;;;;;;-148.88;100.00;75964.09;5077544;28;20397;-79
2023/01/19 05:09:38;;;;;;;18.63;8.52;;;;;;;-148.88;100.00;75972.22;5076507;28;20111;-79
2023/01/19 05:12:04;;;;;;;17.20;7.63;;;;;;;-148.88;100.00;75976.28;5079228;28;20072;-79
2023/01/19 05:14:30;;;;;;;18.83;8.75;;;;;;;-148.88;100.00;75966.13;5077848;28;20024;-80
2023/01/19 05:16:55;;;;;;;17.63;8.18;;;;;;;-148.88;100.00;75972.22;5077219;28;20066;-79
2023/01/19 05:19:20;;;;;;;19.92;7.90;;;;;;;-148.88;100.00;75966.13;5078648;28;20435;-79
2023/01/19 05:21:45;;;;;;;16.38;8.02;;;;;;;-148.88;100.00;75962.06;5077426;28;20025;-80
2023/01/19 05:24:11;;;;;;;15.52;7.65;;;;;;;-148.88;100.00;75964.09;5077385;28;20565;-80
2023/01/19 05:26:36;;;;;;;14.25;7.50;;;;;;;-148.88;100.00;75968.16;5077605;28;20032;-80
2023/01/19 05:29:02;;;;;;;14.65;7.40;;;;;;;-148.88;100.00;75966.13;5078448;28;20111;-80
2023/01/19 05:31:27;;;;;;;19.13;9.13;;;;;;;-148.88;100.00;75960.03;5077110;28;20021;-80
2023/01/19 05:33:52;;;;;;;17.33;7.57;;;;;;;-148.88;100.00;75960.03;5078489;28;20031;-80
2023/01/19 05:36:17;;;;;;;18.33;7.72;;;;;;;-148.88;100.00;75945.81;5078306;28;20021;-80
2023/01/19 05:38:43;;;;;;;14.98;7.45;;;;;;;-148.88;100.00;75960.03;5076477;28;20103;-80
2023/01/19 05:41:08;;;;;;;14.98;7.80;;;;;;;-148.88;100.00;75964.09;5076867;28;20389;-80
2023/01/19 05:43:33;;;;;;;17.45;7.90;;;;;;;-148.88;100.00;75960.03;5076456;28;20024;-80
2023/01/19 05:45:59;;;;;;;16.92;8.02;;;;;;;-148.88;100.00;75958.00;5078172;28;20021;-80
2023/01/19 05:48:24;;;;;;;15.32;7.65;;;;;;;-148.88;100.00;75958.00;5077436;28;20170;-80
2023/01/19 05:50:49;;;;;;;19.25;7.05;;;;;;;-148.88;100.00;75966.13;5076778;28;20432;-79
2023/01/19 05:53:15;;;;;;;17.80;7.70;;;;;;;-148.88;100.00;75968.16;5078141;28;20497;-79
2023/01/19 05:55:41;;;;;;;15.25;7.43;;;;;;;-148.88;100.00;75970.19;5077930;28;20385;-79
2023/01/19 05:58:07;;;;;;;16.65;8.45;;;;;;;-148.88;100.00;75976.28;5076513;28;20473;-80
2023/01/19 06:00:32;;;;;;;17.80;7.60;;;;;;;-148.88;100.00;75982.38;5078187;28;20029;-80
2023/01/19 06:02:59;;;;;;;17.95;7.38;;;;;;;-148.88;100.00;75986.44;5078783;28;20116;-80
2023/01/19 06:05:24;;;;;;;14.65;7.35;;;;;;;-148.88;100.00;75994.56;5075566;28;20563;-79
2023/01/19 06:07:50;;;;;;;18.23;8.13;;;;;;;-148.88;100.00;76004.72;5077674;28;20037;-79
2023/01/19 06:10:15;;;;;;;15.98;7.82;;;;;;;-148.88;100.00;76010.81;5076682;28;20021;-79
2023/01/19 06:12:40;;;;;;;21.08;9.60;;;;;;;-148.88;100.00;76008.78;5078148;28;20032;-79
2023/01/19 06:15:06;;;;;;;17.67;9.13;;;;;;;-148.88;100.00;76020.97;5075815;28;20032;-79
2023/01/19 06:17:32;;;;;;;18.63;9.63;;;;;;;-148.88;100.00;76010.81;5077134;28;20084;-79
2023/01/19 06:19:57;;;;;;;21.58;8.45;;;;;;;-148.88;100.00;76020.97;5076014;28;20035;-79
2023/01/19 06:22:23;;;;;;;22.20;8.52;;;;;;;-148.88;100.00;76016.91;5078138;28;20047;-80
2023/01/19 06:24:49;;;;;;;20.60;8.55;;;;;;;-148.88;100.00;76020.97;5077622;28;20485;-80
2023/01/19 06:27:14;;;;;;;17.80;8.43;;;;;;;-148.88;100.00;76025.03;5075423;28;20037;-80
2023/01/19 06:29:40;;;;;;;16.95;8.30;;;;;;;-148.88;100.00;76027.06;5075445;28;20115;-80
2023/01/19 06:32:05;;;;;;;19.30;9.10;;;;;;;-148.88;100.00;76029.09;5076770;28;20504;-80
2023/01/19 06:34:30;;;;;;;16.33;8.50;;;;;;;-148.88;100.00;76033.16;5075266;28;20385;-80
2023/01/19 06:36:56;;;;;;;17.70;7.50;;;;;;;-148.88;100.00;76031.13;5075358;28;20039;-80
2023/01/19 06:39:21;;;;;;;16.95;8.30;;;;;;;-148.88;100.00;76039.25;5074932;28;20025;-79
2023/01/19 06:41:46;;;;;;;20.38;8.60;;;;;;;-148.88;100.00;76043.31;5074701;28;20024;-80
2023/01/19 06:44:12;;;;;;;13.93;7.70;;;;;;;-148.88;100.00;76049.41;5076713;28;20029;-80
2023/01/19 06:46:39;;;;;;;13.05;7.18;;;;;;;-148.88;100.00;76045.34;5076568;28;20067;-80
2023/01/19 06:49:05;;;;;;;14.93;7.50;;;;;;;-148.88;100.00;76055.50;5076929;28;20434;-80
2023/01/19 06:51:30;;;;;;;12.93;6.50;;;;;;;-148.88;100.00;76061.59;5077564;28;20035;-80
2023/01/19 06:53:56;;;;;;;16.95;7.97;;;;;;;-148.88;100.00;76065.66;5078387;28;20397;-80
2023/01/19 06:56:22;;;;;;;17.17;7.63;;;;;;;-148.88;100.00;76073.78;5080089;28;20052;-80
2023/01/19 06:58:47;;;;;;;16.13;7.75;;;;;;;-148.88;100.00;76071.75;5077433;28;20478;-80
2023/01/19 07:01:13;;;;;;;14.95;7.47;;;;;;;-148.88;100.00;76073.78;5078257;28;20017;-81
2023/01/19 07:03:38;;;;;;;15.57;7.68;;;;;;;-148.88;100.00;76085.97;5076120;28;20059;-81
2023/01/19 07:06:07;;;;;;;15.23;7.55;;;;;;;-148.88;100.00;76090.03;5075435;28;20032;-80
2023/01/19 07:08:34;;;;;;;15.75;6.68;;;;;;;-148.88;100.00;76106.28;5075420;28;20396;-80
2023/01/19 07:11:01;;;;;;;15.00;7.55;;;;;;;-148.88;100.00;76106.28;5076876;28;20030;-80
2023/01/19 07:13:27;;;;;;;15.90;7.30;;;;;;;-148.88;100.00;76118.47;5076768;28;20497;-80
2023/01/19 07:15:52;;;;;;;13.77;7.28;;;;;;;-148.88;100.00;76112.41;5078491;28;20017;-81
2023/01/19 07:18:18;;;;;;;13.38;7.68;;;;;;;-148.88;100.00;76122.56;5077579;28;20108;-80
2023/01/19 07:20:45;;;;;;;13.75;7.47;;;;;;;-148.88;100.00;76124.56;5077162;28;20029;-80
2023/01/19 07:23:11;;;;;;;14.50;7.57;;;;;;;-148.88;100.00;76140.84;5075970;28;20028;-81
2023/01/19 07:25:37;;;;;;;15.60;8.00;;;;;;;-148.88;100.00;76132.72;5077856;28;20020;-81
2023/01/19 07:28:02;;;;;;;13.77;7.20;;;;;;;-148.88;100.00;76140.84;5081349;28;20035;-81
2023/01/19 07:30:28;;;;;;;14.75;7.07;;;;;;;-148.88;100.00;76138.81;5080898;28;20020;-81
2023/01/19 07:32:56;;;;;;;19.52;9.52;;;;;;;-148.88;100.00;76144.91;5081740;28;20028;-81
2023/01/19 07:35:21;;;;;;;15.73;7.95;;;;;;;-148.88;100.00;76148.97;5080359;28;20025;-81
2023/01/19 07:37:46;;;;;;;16.70;8.40;;;;;;;-148.88;100.00;76157.09;5080861;28;20035;-81
2023/01/19 07:40:12;;;;;;;13.93;7.30;;;;;;;-148.88;100.00;76157.09;5080757;28;20029;-81
2023/01/19 07:42:37;;;;;;;16.40;7.95;;;;;;;-148.88;100.00;76163.19;5080436;28;20047;-81
2023/01/19 07:45:03;;;;;;;15.25;7.40;;;;;;;-148.88;100.00;76167.25;5080326;28;20539;-81
2023/01/19 07:47:28;;;;;;;14.40;7.80;;;;;;;-148.88;100.00;76167.25;5079728;28;20032;-80
2023/01/19 07:49:54;;;;;;;22.80;8.32;;;;;;;-148.88;100.00;76167.25;5078727;28;20024;-82
2023/01/19 07:52:19;;;;;;;14.27;7.55;;;;;;;-148.88;100.00;76163.19;5078135;28;20047;-82
2023/01/19 07:54:44;;;;;;;15.88;7.28;;;;;;;-148.88;100.00;76163.19;5076575;28;20055;-82
2023/01/19 07:57:10;;;;;;;17.05;8.13;;;;;;;-148.88;100.00;76171.31;5076459;28;20465;-82
2023/01/19 07:59:35;;;;;;;19.40;8.52;;;;;;;-148.88;100.00;76185.53;5077728;28;20027;-82
2023/01/19 08:02:00;;;;;;;15.88;7.18;;;;;;;-148.88;100.00;76179.44;5078744;28;20035;-82
2023/01/19 08:04:26;;;;;;;17.30;8.32;;;;;;;-148.88;100.00;76189.59;5077045;28;20074;-82
2023/01/19 08:06:52;;;;;;;18.17;8.43;;;;;;;-148.88;100.00;76183.50;5078234;28;20032;-82
2023/01/19 08:09:17;;;;;;;14.45;7.63;;;;;;;-148.88;100.00;76187.56;5076909;28;20057;-82
2023/01/19 08:11:43;;;;;;;18.48;8.82;;;;;;;-148.88;100.00;76209.91;5077014;28;20028;-82
2023/01/19 08:14:08;;;;;;;15.75;8.10;;;;;;;-148.88;100.00;76191.63;5077186;28;20031;-82
2023/01/19 08:16:34;;;;;;;19.15;8.57;;;;;;;-148.88;100.00;76191.63;5077813;28;20017;-82
2023/01/19 08:19:00;;;;;;;18.65;9.02;;;;;;;-148.88;100.00;76201.78;5079447;28;20413;-83
2023/01/19 08:21:26;;;;;;;16.58;8.15;;;;;;;-148.88;100.00;76199.75;5079248;28;20035;-82
2023/01/19 08:23:53;;;;;;;17.45;8.40;;;;;;;-148.88;100.00;76211.94;5076136;28;20033;-82
2023/01/19 08:26:26;;;;;;;17.48;8.68;;;;;;;-148.88;100.00;76216.00;5076427;28;20017;-82
2023/01/19 08:28:53;;;;;;;18.85;8.70;;;;;;;-148.88;100.00;76224.13;5077465;28;20033;-82
2023/01/19 08:31:18;;;;;;;18.92;8.32;;;;;;;-148.88;100.00;76218.03;5076180;28;20032;-82
2023/01/19 08:33:44;;;;;;;17.88;8.45;;;;;;;-148.88;100.00;76216.00;5076105;28;20021;-82
2023/01/19 08:36:09;;;;;;;16.33;8.20;;;;;;;-148.88;100.00;76220.06;5075848;28;20460;-82
2023/01/19 08:38:34;;;;;;;18.20;9.10;;;;;;;-148.88;100.00;76240.38;5075509;28;20017;-82
2023/01/19 08:41:00;;;;;;;18.60;8.68;;;;;;;-148.88;100.00;76228.19;5075772;28;20024;-82
2023/01/19 08:43:25;;;;;;;15.43;8.18;;;;;;;-148.88;100.00;76220.06;5076439;28;20085;-83
2023/01/19 08:45:51;;;;;;;16.80;8.10;;;;;;;-148.88;100.00;76220.06;5075746;28;20043;-82
2023/01/19 08:48:21;;;;;;;18.48;9.45;;;;;;;-148.88;100.00;76228.19;5075454;28;20123;-82
2023/01/19 08:50:47;;;;;;;16.05;7.70;;;;;;;-148.88;100.00;76224.13;5077621;28;20021;-83
2023/01/19 08:53:13;;;;;;;18.95;8.57;;;;;;;-148.88;100.00;76228.19;5076761;28;20370;-83
2023/01/19 08:55:39;;;;;;;17.50;8.65;;;;;;;-148.88;100.00;76228.19;5076328;28;20576;-82
2023/01/19 08:58:06;;;;;;;14.45;7.28;;;;;;;-148.88;100.00;76228.19;5075764;28;20071;-83
2023/01/19 09:00:33;;;;;;;15.88;7.65;;;;;;;-148.88;100.00;76234.28;5075235;28;20082;-82
2023/01/19 09:03:00;;;;;;;17.50;8.25;;;;;;;-148.88;100.00;76234.28;5076864;28;20466;-83
2023/01/19 09:05:26;;;;;;;15.77;7.60;;;;;;;-148.88;100.00;76232.25;5075330;28;20024;-82
2023/01/19 09:07:51;;;;;;;16.52;7.68;;;;;;;-148.88;100.00;76224.13;5075117;28;20024;-82
2023/01/19 09:10:17;;;;;;;16.08;8.02;;;;;;;-148.88;100.00;76226.16;5075253;28;20489;-82
2023/01/19 09:12:43;;;;;;;20.08;8.60;;;;;;;-148.88;100.00;76234.28;5075159;28;20111;-82
2023/01/19 09:15:11;;;;;;;15.18;7.38;;;;;;;-148.88;100.00;76240.38;5075386;28;20111;-82
2023/01/19 09:17:36;;;;;;;17.00;8.60;;;;;;;-148.88;100.00;76244.44;5075341;28;20028;-82
2023/01/19 09:20:03;;;;;;;14.50;7.05;;;;;;;-148.88;100.00;76228.19;5075241;28;20046;-82
2023/01/19 09:22:28;;;;;;;15.70;7.50;;;;;;;-148.88;100.00;76236.31;5075366;28;20488;-82
2023/01/19 09:24:53;;;;;;;16.15;7.80;;;;;;;-148.88;100.00;76228.19;5075516;28;20025;-82
2023/01/19 09:27:19;;;;;;;14.63;7.32;;;;;;;-148.88;100.00;76230.22;5075598;28;20028;-83
2023/01/19 09:29:51;;;;;;;14.85;6.70;;;;;;;-148.88;100.00;76224.13;5075972;28;20024;-82
2023/01/19 09:32:19;;;;;;;14.00;6.45;;;;;;;-148.88;100.00;76224.13;5075229;28;20021;-82
2023/01/19 09:34:44;;;;;;;11.85;6.00;;;;;;;-148.88;100.00;76209.91;5075000;28;20505;-82
2023/01/19 09:37:10;;;;;;;13.50;6.32;;;;;;;-148.88;100.00;76211.94;5074806;28;20048;-82
2023/01/19 09:39:35;;;;;;;12.70;6.30;;;;;;;-148.88;100.00;76207.88;5075830;28;20025;-82
2023/01/19 09:42:17;;;;;;;14.88;6.15;;;;;;;-148.88;100.00;76209.91;5074541;28;20032;-82
2023/01/19 09:44:44;;;;;;;14.05;6.07;;;;;;;-148.88;100.00;76195.69;5075876;28;20012;-83
2023/01/19 09:47:15;;;;;;;11.20;5.90;;;;;;;-148.88;100.00;76193.66;5074295;28;20029;-82
2023/01/19 09:49:49;;;;;;;12.93;6.82;;;;;;;-148.88;100.00;76197.72;5075094;28;20033;-82
2023/01/19 09:52:15;;;;;;;14.52;7.00;;;;;;;-148.88;100.00;76205.84;5074083;28;20020;-82
2023/01/19 09:54:55;;;;;;;14.38;6.40;;;;;;;-148.88;100.00;76213.97;5074167;28;20097;-83
2023/01/19 09:57:22;;;;;;;14.02;6.45;;;;;;;-148.88;100.00;76207.88;5075664;28;20039;-82
2023/01/19 09:59:50;;;;;;;12.73;5.85;;;;;;;-148.88;100.00;76222.09;5074959;28;20115;-82
2023/01/19 10:02:41;;;;;;;14.20;6.70;;;;;;;-148.88;100.00;76226.16;5074858;28;20024;-83
2023/01/19 10:05:25;;;;;;;16.08;6.72;;;;;;;-148.88;100.00;76228.19;5075162;28;20474;-82
2023/01/19 10:08:12;;;;;;;15.25;6.55;;;;;;;-148.88;100.00;76236.31;5074667;28;20064;-83
2023/01/19 10:10:41;;;;;;;14.60;5.95;;;;;;;-148.88;100.00;76244.44;5075958;28;20032;-84
2023/01/19 10:13:43;;;;;;;16.02;6.47;;;;;;;-148.88;100.00;76287.09;5075059;28;20020;-83
2023/01/19 10:16:25;;;;;;;15.70;6.78;;;;;;;-148.88;100.00;76289.13;5074708;28;20496;-84
2023/01/19 10:18:56;;;;;;;14.20;6.25;;;;;;;-148.88;100.00;76285.06;5074135;28;20119;-83
2023/01/19 10:21:38;;;;;;;12.07;6.57;;;;;;;-148.88;100.00;76293.19;5074187;28;20481;-83
2023/01/19 10:24:10;;;;;;;13.38;6.20;;;;;;;-148.88;100.00;76301.31;5074264;28;20523;-83
2023/01/19 10:26:44;;;;;;;15.82;7.20;;;;;;;-148.88;100.00;76305.38;5075780;28;20381;-83
2023/01/19 10:29:21;;;;;;;20.48;6.82;;;;;;;-148.88;100.00;76297.25;5075611;28;20051;-83
2023/01/19 10:31:49;;;;;;;10.70;4.53;;;;;;;-148.88;100.00;76281.00;5074598;28;20048;-84
2023/01/19 10:34:17;;;;;;;12.13;5.13;;;;;;;-148.88;100.00;76291.16;5074174;28;20020;-83
2023/01/19 10:36:45;;;;;;;12.73;5.85;;;;;;;-148.88;100.00;76295.22;5074955;28;20043;-83
2023/01/19 10:39:17;;;;;;;11.68;5.65;;;;;;;-148.88;100.00;76301.31;5074771;28;20045;-82
2023/01/19 10:41:52;;;;;;;13.32;4.85;;;;;;;-148.88;100.00;76293.19;5073385;28;20043;-83
2023/01/19 10:44:26;;;;;;;9.65;4.43;;;;;;;-148.88;100.00;76293.19;5073259;28;20144;-83
2023/01/19 10:46:54;;;;;;;9.95;4.63;;;;;;;-148.88;100.00;76313.50;5073305;28;20033;-83
2023/01/19 10:49:37;;;;;;;10.38;4.28;;;;;;;-148.88;100.00;76325.69;5073576;28;20054;-84
2023/01/19 10:52:06;;;;;;;9.57;3.95;;;;;;;-148.88;100.00;76333.81;5074244;28;20020;-84
2023/01/19 10:54:35;;;;;;;11.15;5.13;;;;;;;-148.88;100.00;76337.88;5074036;28;20119;-84
2023/01/19 10:57:05;;;;;;;9.60;4.28;;;;;;;-148.88;100.00;76325.69;5073741;28;20036;-84
2023/01/19 10:59:34;;;;;;;10.82;4.60;;;;;;;-148.88;100.00;76346.00;5074015;28;20028;-84
2023/01/19 11:02:18;;;;;;;10.25;4.70;;;;;;;-148.88;100.00;76325.69;5073769;28;20028;-84
2023/01/19 11:04:47;;;;;;;12.00;4.60;;;;;;;-148.88;100.00;76337.88;5074288;28;20025;-85
2023/01/19 11:07:17;;;;;;;11.05;4.65;;;;;;;-148.88;100.00;76319.59;5074281;28;20032;-84
2023/01/19 11:09:43;;;;;;;13.13;5.20;;;;;;;-148.88;100.00;76315.53;5074354;28;20023;-84
2023/01/19 11:12:16;;;;;;;10.73;4.60;;;;;;;-148.88;100.00;76307.41;5073675;28;20115;-83
2023/01/19 11:14:41;;;;;;;11.55;4.72;;;;;;;-148.88;100.00;76297.25;5072179;28;20065;-83
2023/01/19 11:17:17;;;;;;;12.90;5.38;;;;;;;-148.88;100.00;76309.44;5072967;28;20040;-83
2023/01/19 11:19:52;;;;;;;11.40;5.15;;;;;;;-148.88;100.00;76291.16;5073860;28;20031;-84
2023/01/19 11:22:22;;;;;;;10.20;5.10;;;;;;;-148.88;100.00;76285.06;5073526;28;20450;-83
2023/01/19 11:24:48;;;;;;;11.50;4.85;;;;;;;-148.88;100.00;76281.00;5072764;28;20025;-83
2023/01/19 11:27:19;;;;;;;14.13;5.18;;;;;;;-148.88;100.00;76272.88;5073159;28;20025;-83
2023/01/19 11:29:48;;;;;;;11.35;4.80;;;;;;;-148.88;100.00;76250.53;5071615;28;20024;-83